Pagrindinis puslapis
METAR-TAF:

METAR-TAF

Oro uostai :

Bankokas, Tailandas

platuma: 13-54-45N, ilguma: 100-36-24E, Aukštis: 4 m

Dabartinis oras

Ataskaita buvo paskelbta 37 minutes, ne 05:00 UTC
Vėjas 7 kt iš Pietų/Pietvakarių, svyruoja nuo Pietų/Pietryčių ir Pietvakarių
Temperatūra 34°C
Drėgmė 56%
Slėgis 1013 hPa
Matomumas 10 km arba daugiau
Mažai debesys ne aukštis 2000 ft
Išsisklaidę debesys ne aukštis 3000 ft

METAR: VTBD 100500Z 20007KT 160V230 9999 FEW020 SCT030 34/24 Q1013 NOSIG

Laikas: 12:37 (05:37 UTC)

Prognozė

Ataskaita buvo paskelbta 6 valandos ir 37 minutes, ne 23:00 UTC
Prognozė galioja nuo 10 metu 00 UTC su 11 metu 06 UTC
Vėjas 5 kt iš Rytų/Pietryčių
Matomumas 10 km arba daugiau
Mažai debesys ne aukštis 2000 ft
Tapsmas
nuo 10 metu 02 UTC su 10 metu 04 UTC
Vėjas 8 kt iš Pietų
Tapsmas
nuo 10 metu 20 UTC su 10 metu 22 UTC
Vėjas 5 kt iš Pietryčių

TAF: VTBD 092300Z 1000/1106 12005KT 9999 FEW020 BECMG 1002/1004 19008KT BECMG 1020/1022 13005KT

Orai ataskaitas ir orų prognozės (METAR, TAF).

turimą stotys yra geltonos ir raudonos taškus žemėlapyje.

Perkelti pele per norėdami pamatyti stoties vardą.

Tada spustelėkite, norėdami matyti oro stebėjimo ir prognozės.

Norėdami pakeisti žemėlapį: spustelėkite ant žalios mygtukų su juodo kryžiaus žemyn,; žalią mygtuką su brūkšneliu, jei norite nutolinti; arba žalių rodyklių gretimoms žemėlapius.


METAR-TAF: